createdAt,value
2022-08-07T00:00:56.320Z,94.41
2022-08-07T00:02:36.425Z,94.22
2022-08-07T00:02:56.356Z,94.41
2022-08-07T00:03:56.375Z,94.31
2022-08-07T00:04:56.431Z,94.79
2022-08-07T00:05:56.415Z,94.70
2022-08-07T00:06:56.429Z,95.08
2022-08-07T00:08:00.203Z,95.08
2022-08-07T00:08:56.496Z,95.17
2022-08-07T00:10:19.304Z,95.08
2022-08-07T00:10:57.550Z,94.98
2022-08-07T00:11:58.974Z,94.98
2022-08-07T00:13:00.075Z,95.84
2022-08-07T00:13:56.559Z,96.03
2022-08-07T00:14:56.577Z,95.75
2022-08-07T00:15:56.776Z,95.94
2022-08-07T00:16:56.613Z,96.03
2022-08-07T00:17:56.630Z,96.32
2022-08-07T00:18:56.650Z,96.32
2022-08-07T00:20:02.487Z,96.22
2022-08-07T00:20:57.366Z,96.32
2022-08-07T00:22:01.789Z,96.32
2022-08-07T00:22:56.720Z,96.32
2022-08-07T00:23:56.741Z,96.32
2022-08-07T00:24:56.761Z,96.22
2022-08-07T00:25:59.267Z,96.13
2022-08-07T00:27:06.158Z,96.42
2022-08-07T00:27:56.812Z,96.51
2022-08-07T00:28:57.187Z,96.13
2022-08-07T00:29:56.850Z,96.61
2022-08-07T00:30:56.868Z,97.08
2022-08-07T00:31:56.886Z,97.18
2022-08-07T00:32:56.906Z,96.89
2022-08-07T00:33:56.922Z,96.98
2022-08-07T00:34:56.940Z,97.18
2022-08-07T00:35:56.968Z,97.47
2022-08-07T00:36:56.978Z,97.94
2022-08-07T00:37:56.994Z,98.13
2022-08-07T00:38:57.060Z,97.56
2022-08-07T00:39:57.070Z,98.13
2022-08-07T00:40:57.051Z,97.71
2022-08-07T00:42:02.270Z,97.66
2022-08-07T00:42:57.088Z,97.37
2022-08-07T00:44:00.229Z,97.47
2022-08-07T00:44:57.124Z,97.51
2022-08-07T00:45:57.141Z,97.22
2022-08-07T00:46:57.156Z,97.27
2022-08-07T00:48:08.136Z,97.80
2022-08-07T00:48:57.194Z,97.89
2022-08-07T00:50:19.991Z,97.61
2022-08-07T00:50:57.261Z,97.94
2022-08-07T00:51:58.674Z,98.08
2022-08-07T00:52:57.263Z,98.27
2022-08-07T00:53:57.283Z,98.18
2022-08-07T00:54:57.302Z,98.66
2022-08-07T00:56:03.131Z,99.04
2022-08-07T00:56:57.338Z,98.94
2022-08-07T00:57:57.356Z,98.94
2022-08-07T00:58:57.374Z,98.94
2022-08-07T00:59:57.392Z,99.04
2022-08-07T01:00:57.413Z,98.94
2022-08-07T01:01:57.966Z,98.94
2022-08-07T01:02:57.445Z,99.23
2022-08-07T01:04:00.397Z,98.94
2022-08-07T01:04:58.830Z,99.13
2022-08-07T01:05:57.500Z,99.04
2022-08-07T01:06:57.518Z,99.13
2022-08-07T01:07:57.538Z,98.66
2022-08-07T01:08:58.561Z,99.23
2022-08-07T01:10:06.090Z,99.04
2022-08-07T01:10:58.451Z,99.32
2022-08-07T01:12:08.980Z,98.94
2022-08-07T01:12:57.623Z,99.04
2022-08-07T01:13:57.644Z,99.90
2022-08-07T01:15:01.571Z,99.71
2022-08-07T01:16:00.818Z,99.90
2022-08-07T01:16:57.705Z,99.61
2022-08-07T01:17:57.720Z,99.52
2022-08-07T01:18:57.746Z,99.61
2022-08-07T01:19:57.750Z,99.42
2022-08-07T01:20:59.718Z,99.61
2022-08-07T01:21:57.791Z,99.61
2022-08-07T01:23:12.452Z,99.61
2022-08-07T01:23:57.822Z,99.61
2022-08-07T01:24:57.840Z,99.80
2022-08-07T01:25:57.860Z,99.71
2022-08-07T01:26:57.878Z,99.90
2022-08-07T01:27:57.896Z,99.80
2022-08-07T01:28:57.912Z,99.71
2022-08-07T01:29:57.931Z,99.90
2022-08-07T01:30:57.948Z,99.61
2022-08-07T01:31:59.559Z,99.71
2022-08-07T01:32:58.344Z,99.23
2022-08-07T01:33:58.003Z,99.52
2022-08-07T01:34:58.019Z,99.23
2022-08-07T01:36:06.396Z,99.61
2022-08-07T01:36:58.462Z,99.99
2022-08-07T01:37:58.071Z,99.90
2022-08-07T01:38:58.115Z,99.99
2022-08-07T01:39:58.175Z,99.99
2022-08-07T01:40:58.126Z,99.99
2022-08-07T01:42:36.997Z,99.99
2022-08-07T01:42:59.055Z,99.99
2022-08-07T01:43:58.196Z,99.99
2022-08-07T01:44:58.198Z,99.99
2022-08-07T01:45:58.748Z,99.99
2022-08-07T01:46:58.234Z,99.99
2022-08-07T01:48:18.996Z,99.99
2022-08-07T01:48:59.948Z,99.99
2022-08-07T01:49:58.287Z,99.99
2022-08-07T01:50:58.302Z,99.99
2022-08-07T01:52:02.301Z,99.99
2022-08-07T01:52:58.573Z,99.99
2022-08-07T01:54:11.679Z,99.99
2022-08-07T01:54:58.983Z,99.99
2022-08-07T01:55:58.395Z,99.99
2022-08-07T01:56:58.408Z,99.99
2022-08-07T01:58:05.970Z,99.99
2022-08-07T01:58:58.446Z,99.99
2022-08-07T01:59:58.475Z,99.99
2022-08-07T02:01:09.923Z,99.99
2022-08-07T02:02:01.915Z,99.99
2022-08-07T02:03:18.388Z,99.99
2022-08-07T02:03:58.562Z,99.99
2022-08-07T02:04:58.548Z,99.99
2022-08-07T02:06:01.011Z,99.99
2022-08-07T02:06:58.586Z,99.99
2022-08-07T02:07:58.605Z,99.99
2022-08-07T02:08:58.621Z,99.99
2022-08-07T02:09:58.923Z,99.99
2022-08-07T02:10:58.663Z,99.99
2022-08-07T02:12:03.392Z,99.99
2022-08-07T02:12:59.656Z,99.99
2022-08-07T02:14:02.324Z,99.99
2022-08-07T02:14:58.725Z,99.99
2022-08-07T02:15:58.745Z,99.99
2022-08-07T02:16:58.763Z,99.99
2022-08-07T02:17:59.897Z,99.99
2022-08-07T02:18:58.796Z,99.99
2022-08-07T02:20:06.751Z,99.99
2022-08-07T02:20:58.833Z,99.99
2022-08-07T02:21:59.026Z,99.99
2022-08-07T02:22:59.655Z,99.99
2022-08-07T02:23:58.885Z,99.99
2022-08-07T02:24:58.906Z,99.99
2022-08-07T02:26:30.980Z,99.99
2022-08-07T02:26:58.939Z,99.99
2022-08-07T02:27:58.953Z,99.99
2022-08-07T02:28:58.970Z,99.99
2022-08-07T02:29:58.989Z,99.99
2022-08-07T02:30:59.037Z,99.99
2022-08-07T02:31:59.026Z,99.99
2022-08-07T02:33:00.459Z,99.99
2022-08-07T02:34:10.994Z,99.99
2022-08-07T02:35:00.906Z,99.99
2022-08-07T02:36:29.162Z,99.99
2022-08-07T02:36:59.291Z,99.99
2022-08-07T02:37:59.128Z,99.99
2022-08-07T02:38:59.221Z,99.99
2022-08-07T02:40:02.497Z,99.99
2022-08-07T02:40:59.229Z,99.99
2022-08-07T02:41:59.198Z,99.99
2022-08-07T02:42:59.225Z,99.99
2022-08-07T02:43:59.233Z,99.99
2022-08-07T02:44:59.248Z,99.99
2022-08-07T02:46:01.933Z,99.99
2022-08-07T02:46:59.294Z,99.99
2022-08-07T02:47:59.321Z,99.99
2022-08-07T02:48:59.321Z,99.99
2022-08-07T02:50:00.164Z,99.99
2022-08-07T02:50:59.355Z,99.99
2022-08-07T02:51:59.373Z,99.99
2022-08-07T02:53:00.834Z,99.99
2022-08-07T02:53:59.405Z,99.99
2022-08-07T02:54:59.424Z,99.99
2022-08-07T02:56:04.250Z,99.99
2022-08-07T02:56:59.459Z,99.99
2022-08-07T02:57:59.707Z,99.99
2022-08-07T02:58:59.492Z,99.99
2022-08-07T03:00:01.394Z,99.99
2022-08-07T03:00:59.586Z,99.99
2022-08-07T03:02:01.947Z,99.99
2022-08-07T03:02:59.560Z,99.99
2022-08-07T03:03:59.581Z,99.99
2022-08-07T03:04:59.596Z,99.99
2022-08-07T03:05:59.615Z,99.99
2022-08-07T03:06:59.631Z,99.99
2022-08-07T03:08:08.151Z,99.99
2022-08-07T03:08:59.682Z,99.99
2022-08-07T03:09:59.680Z,99.99
2022-08-07T03:10:59.710Z,99.99
2022-08-07T03:12:02.853Z,99.99
2022-08-07T03:12:59.735Z,99.99
2022-08-07T03:14:01.588Z,99.99
2022-08-07T03:15:02.340Z,99.99
2022-08-07T03:15:59.785Z,99.99
2022-08-07T03:16:59.801Z,99.99
2022-08-07T03:17:59.819Z,99.99
2022-08-07T03:18:59.836Z,99.99
2022-08-07T03:19:59.854Z,99.99
2022-08-07T03:20:59.871Z,99.99
2022-08-07T03:21:59.887Z,99.99
2022-08-07T03:22:59.909Z,99.99
2022-08-07T03:24:20.966Z,99.99
2022-08-07T03:24:59.949Z,99.99
2022-08-07T03:26:00.027Z,99.99
2022-08-07T03:26:59.984Z,99.99
2022-08-07T03:28:09.371Z,99.99
2022-08-07T03:29:00.007Z,99.99
2022-08-07T03:30:00.025Z,99.99
2022-08-07T03:31:00.041Z,99.99
2022-08-07T03:32:00.060Z,99.99
2022-08-07T03:33:00.960Z,99.99
2022-08-07T03:34:00.094Z,99.99
2022-08-07T03:35:18.160Z,99.99
2022-08-07T03:36:00.136Z,99.99
2022-08-07T03:37:00.145Z,99.99
2022-08-07T03:38:00.165Z,99.99
2022-08-07T03:39:05.526Z,99.99
2022-08-07T03:40:14.961Z,99.99
2022-08-07T03:41:00.264Z,99.99
2022-08-07T03:42:00.803Z,99.99
2022-08-07T03:43:00.698Z,99.99
2022-08-07T03:44:00.264Z,99.99
2022-08-07T03:45:01.380Z,99.99
2022-08-07T03:46:00.298Z,99.99
2022-08-07T03:47:11.287Z,99.99
2022-08-07T03:48:00.333Z,99.99
2022-08-07T03:49:02.855Z,99.99
2022-08-07T03:50:00.402Z,99.99
2022-08-07T03:51:00.385Z,99.99
2022-08-07T03:52:01.906Z,99.99
2022-08-07T03:53:00.422Z,99.99
2022-08-07T03:54:33.143Z,99.99
2022-08-07T03:55:06.935Z,99.99
2022-08-07T03:56:03.871Z,99.99
2022-08-07T03:57:03.985Z,99.99
2022-08-07T03:58:35.343Z,99.99
2022-08-07T03:59:07.152Z,99.99
2022-08-07T04:00:01.621Z,99.99
2022-08-07T04:01:00.607Z,99.99
2022-08-07T04:02:00.616Z,99.99
2022-08-07T04:03:03.841Z,99.99
2022-08-07T04:04:00.609Z,99.99
2022-08-07T04:05:00.622Z,99.99
2022-08-07T04:06:00.637Z,99.99
2022-08-07T04:07:00.656Z,99.99
2022-08-07T04:08:00.674Z,99.99
2022-08-07T04:09:00.691Z,99.99
2022-08-07T04:10:02.060Z,99.99
2022-08-07T04:12:24.219Z,99.99
2022-08-07T04:12:26.648Z,99.99
2022-08-07T04:13:00.760Z,99.99
2022-08-07T04:14:10.248Z,99.99
2022-08-07T04:15:00.794Z,99.99
2022-08-07T04:16:00.810Z,99.99
2022-08-07T04:17:00.824Z,99.99
2022-08-07T04:18:56.259Z,99.99
2022-08-07T04:19:01.526Z,99.99
2022-08-07T04:20:01.224Z,99.99
2022-08-07T04:21:00.894Z,99.99
2022-08-07T04:22:08.653Z,99.99
2022-08-07T04:23:01.949Z,99.99
2022-08-07T04:24:05.939Z,99.99
2022-08-07T04:25:01.988Z,99.99
2022-08-07T04:26:00.985Z,99.99
2022-08-07T04:27:01.010Z,99.99
2022-08-07T04:28:01.176Z,99.99
2022-08-07T04:29:01.031Z,99.99
2022-08-07T04:30:02.695Z,99.99
2022-08-07T04:31:01.066Z,99.99
2022-08-07T04:32:02.913Z,99.99
2022-08-07T04:33:01.112Z,99.99
2022-08-07T04:34:01.121Z,99.99
2022-08-07T04:35:01.135Z,99.99
2022-08-07T04:36:01.152Z,99.99
2022-08-07T04:37:01.171Z,99.99
2022-08-07T04:38:06.922Z,99.99
2022-08-07T04:39:01.222Z,99.99
2022-08-07T04:40:01.296Z,99.99
2022-08-07T04:41:01.238Z,99.99
2022-08-07T04:42:01.256Z,99.99
2022-08-07T04:43:03.596Z,99.99
2022-08-07T04:44:11.951Z,99.99
2022-08-07T04:45:03.261Z,99.99
2022-08-07T04:46:02.201Z,99.99
2022-08-07T04:47:07.679Z,99.99
2022-08-07T04:48:04.672Z,99.99
2022-08-07T04:49:01.660Z,99.99
2022-08-07T04:50:03.932Z,99.99
2022-08-07T04:51:01.412Z,99.99
2022-08-07T04:52:01.428Z,99.99
2022-08-07T04:53:03.118Z,99.99
2022-08-07T04:54:06.089Z,99.99
2022-08-07T04:55:01.482Z,99.99
2022-08-07T04:58:10.760Z,99.99
2022-08-07T04:58:11.443Z,99.99
2022-08-07T04:58:16.888Z,99.99
2022-08-07T04:59:18.371Z,99.99
2022-08-07T05:00:12.781Z,99.99
2022-08-07T05:01:01.616Z,99.99
2022-08-07T05:02:01.626Z,99.99
2022-08-07T05:03:01.631Z,99.99
2022-08-07T05:04:08.541Z,99.99
2022-08-07T05:05:01.656Z,99.99
2022-08-07T05:06:01.675Z,99.99
2022-08-07T05:07:19.631Z,99.99
2022-08-07T05:08:01.708Z,99.99
2022-08-07T05:09:02.469Z,99.99
2022-08-07T05:10:01.742Z,99.99
2022-08-07T05:11:02.573Z,99.99
2022-08-07T05:12:02.278Z,99.99
2022-08-07T05:14:44.763Z,99.99
2022-08-07T05:14:53.680Z,99.99
2022-08-07T05:15:04.894Z,99.99
2022-08-07T05:16:04.622Z,99.99
2022-08-07T05:17:01.867Z,99.99
2022-08-07T05:18:09.061Z,99.99
2022-08-07T05:19:01.903Z,99.99
2022-08-07T05:20:04.373Z,99.99
2022-08-07T05:21:01.939Z,99.99
2022-08-07T05:22:04.570Z,99.99
2022-08-07T05:23:02.170Z,99.99
2022-08-07T05:24:01.995Z,99.99
2022-08-07T05:25:02.011Z,99.99
2022-08-07T05:26:13.377Z,99.99
2022-08-07T05:27:02.046Z,99.99
2022-08-07T05:28:20.075Z,99.99
2022-08-07T05:29:04.197Z,99.99
2022-08-07T05:30:02.099Z,99.99
2022-08-07T05:31:02.126Z,99.99
2022-08-07T05:32:02.138Z,99.99
2022-08-07T05:33:02.614Z,99.99
2022-08-07T05:34:05.629Z,99.99
2022-08-07T05:35:02.245Z,99.99
2022-08-07T05:36:02.210Z,99.99
2022-08-07T05:37:02.231Z,99.99
2022-08-07T05:38:09.746Z,99.99
2022-08-07T05:39:08.965Z,99.99
2022-08-07T05:40:17.472Z,99.99
2022-08-07T05:41:02.327Z,99.99
2022-08-07T05:42:07.362Z,99.99
2022-08-07T05:43:02.347Z,99.99
2022-08-07T05:44:11.933Z,99.99
2022-08-07T05:45:11.799Z,99.99
2022-08-07T05:46:02.398Z,99.99
2022-08-07T05:47:17.978Z,99.99
2022-08-07T05:48:03.180Z,99.99
2022-08-07T05:49:11.885Z,99.99
2022-08-07T05:50:02.501Z,99.99
2022-08-07T05:51:03.377Z,99.99
2022-08-07T05:52:02.519Z,99.99
2022-08-07T05:53:02.531Z,99.99
2022-08-07T05:54:09.409Z,99.99
2022-08-07T05:55:07.051Z,99.99
2022-08-07T05:56:06.001Z,99.99
2022-08-07T05:57:02.604Z,99.81
2022-08-07T05:58:02.659Z,99.14
2022-08-07T05:59:02.645Z,99.57
2022-08-07T06:00:02.664Z,98.81
2022-08-07T06:01:05.136Z,97.56
2022-08-07T06:02:02.754Z,96.99
2022-08-07T06:03:02.724Z,96.51
2022-08-07T06:04:02.742Z,96.51
2022-08-07T06:05:03.415Z,96.42
2022-08-07T06:06:02.782Z,96.51
2022-08-07T06:07:03.776Z,95.94
2022-08-07T06:08:13.961Z,95.17
2022-08-07T06:09:04.628Z,94.93
2022-08-07T06:10:05.190Z,93.59
2022-08-07T06:11:03.944Z,93.79
2022-08-07T06:12:02.904Z,93.98
2022-08-07T06:13:02.921Z,93.88
2022-08-07T06:14:12.538Z,93.88
2022-08-07T06:15:05.249Z,92.92
2022-08-07T06:16:02.982Z,91.87
2022-08-07T06:17:07.207Z,91.05
2022-08-07T06:18:03.022Z,91.05
2022-08-07T06:19:03.041Z,90.48
2022-08-07T06:20:04.200Z,90.77
2022-08-07T06:22:15.646Z,90.67
2022-08-07T06:22:16.781Z,90.19
2022-08-07T06:23:25.066Z,90.09
2022-08-07T06:24:52.316Z,88.80
2022-08-07T06:25:03.227Z,88.70
2022-08-07T06:26:03.188Z,88.51
2022-08-07T06:27:03.608Z,88.61
2022-08-07T06:28:03.322Z,88.51
2022-08-07T06:29:03.249Z,89.28
2022-08-07T06:30:03.267Z,89.23
2022-08-07T06:31:03.829Z,88.94
2022-08-07T06:32:03.310Z,88.46
2022-08-07T06:33:03.662Z,88.60
2022-08-07T06:34:03.351Z,88.31
2022-08-07T06:35:03.374Z,87.59
2022-08-07T06:36:12.873Z,85.28
2022-08-07T06:37:03.416Z,85.24
2022-08-07T06:38:03.443Z,84.70
2022-08-07T06:40:13.283Z,83.78
2022-08-07T06:40:15.632Z,84.51
2022-08-07T06:41:03.537Z,83.78
2022-08-07T06:42:03.664Z,83.63
2022-08-07T06:43:03.553Z,81.71
2022-08-07T06:44:06.673Z,77.81
2022-08-07T06:45:03.599Z,77.71
2022-08-07T06:46:03.622Z,78.23
2022-08-07T06:47:12.540Z,77.40
2022-08-07T06:48:03.668Z,77.01
2022-08-07T06:49:04.026Z,77.06
2022-08-07T06:50:03.969Z,76.38
2022-08-07T06:51:08.015Z,74.10
2022-08-07T06:52:07.591Z,73.47
2022-08-07T06:53:04.166Z,72.89
2022-08-07T06:55:28.260Z,72.54
2022-08-07T06:55:32.524Z,72.25
2022-08-07T06:56:03.864Z,71.42
2022-08-07T06:57:03.896Z,70.84
2022-08-07T06:58:04.168Z,70.20
2022-08-07T07:00:11.977Z,69.23
2022-08-07T07:00:12.759Z,69.17
2022-08-07T07:01:03.989Z,68.59
2022-08-07T07:02:04.106Z,68.43
2022-08-07T07:03:08.893Z,67.36
2022-08-07T07:04:27.689Z,66.82
2022-08-07T07:05:04.093Z,66.33
2022-08-07T07:06:06.261Z,65.59
2022-08-07T07:07:18.977Z,63.37
2022-08-07T07:08:07.275Z,63.46
2022-08-07T07:09:04.198Z,62.34
2022-08-07T07:10:04.227Z,61.46
2022-08-07T07:11:14.544Z,60.59
2022-08-07T07:12:08.644Z,60.30
2022-08-07T07:13:04.308Z,59.82
2022-08-07T07:14:04.333Z,59.46
2022-08-07T07:15:04.359Z,60.52
2022-08-07T07:16:04.388Z,60.82
2022-08-07T07:17:04.414Z,59.78
2022-08-07T07:18:05.558Z,58.91
2022-08-07T07:19:54.538Z,59.00
2022-08-07T07:20:04.494Z,59.97
2022-08-07T07:21:04.523Z,59.61
2022-08-07T07:22:32.253Z,59.03
2022-08-07T07:24:07.062Z,57.68
2022-08-07T07:24:10.430Z,58.26
2022-08-07T07:26:30.820Z,57.48
2022-08-07T07:26:32.487Z,57.03
2022-08-07T07:27:04.688Z,56.83
2022-08-07T07:28:07.721Z,56.96
2022-08-07T07:29:39.180Z,57.15
2022-08-07T07:30:10.136Z,57.06
2022-08-07T07:31:04.799Z,57.06
2022-08-07T07:32:04.830Z,57.28
2022-08-07T07:33:04.869Z,56.70
2022-08-07T07:34:04.884Z,56.89
2022-08-07T07:35:04.912Z,56.89
2022-08-07T07:36:12.783Z,56.30
2022-08-07T07:37:15.001Z,56.62
2022-08-07T07:38:05.982Z,56.34
2022-08-07T07:39:05.080Z,55.65
2022-08-07T07:40:15.000Z,55.29
2022-08-07T07:41:05.084Z,55.17
2022-08-07T07:42:13.089Z,54.90
2022-08-07T07:43:11.684Z,54.29
2022-08-07T07:44:17.304Z,54.10
2022-08-07T07:45:05.199Z,53.42
2022-08-07T07:46:36.788Z,54.10
2022-08-07T07:47:15.910Z,53.83
2022-08-07T07:48:05.285Z,53.93
2022-08-07T07:50:29.432Z,54.13
2022-08-07T07:50:35.166Z,53.93
2022-08-07T07:51:08.009Z,54.03
2022-08-07T07:52:05.761Z,54.32
2022-08-07T07:53:05.443Z,54.52
2022-08-07T07:54:05.458Z,54.22
2022-08-07T07:55:05.495Z,54.13
2022-08-07T07:56:05.517Z,54.05
2022-08-07T07:57:05.547Z,54.25
2022-08-07T07:58:05.576Z,53.96
2022-08-07T07:59:06.074Z,53.38
2022-08-07T08:00:05.634Z,52.21
2022-08-07T08:02:03.375Z,51.82
2022-08-07T08:02:10.634Z,52.21
2022-08-07T08:03:08.121Z,51.62
2022-08-07T08:04:10.017Z,51.92
2022-08-07T08:05:11.488Z,51.62
2022-08-07T08:06:05.814Z,51.53
2022-08-07T08:07:07.911Z,51.82
2022-08-07T08:08:05.876Z,51.62
2022-08-07T08:09:05.905Z,50.75
2022-08-07T08:10:05.980Z,50.95
2022-08-07T08:11:05.966Z,51.33
2022-08-07T08:12:06.111Z,51.23
2022-08-07T08:13:06.025Z,51.53
2022-08-07T08:14:06.054Z,50.85
2022-08-07T08:15:07.007Z,50.75
2022-08-07T08:16:06.133Z,50.73
2022-08-07T08:17:56.032Z,51.11
2022-08-07T08:18:17.452Z,51.40
2022-08-07T08:19:17.459Z,52.09
2022-08-07T08:20:18.993Z,52.37
2022-08-07T08:21:07.604Z,52.19
2022-08-07T08:22:06.303Z,52.28
2022-08-07T08:23:08.128Z,52.28
2022-08-07T08:24:06.358Z,51.99
2022-08-07T08:25:25.024Z,51.97
2022-08-07T08:26:07.216Z,51.77
2022-08-07T08:27:09.223Z,51.65
2022-08-07T08:28:06.476Z,51.55
2022-08-07T08:29:06.504Z,51.93
2022-08-07T08:30:06.534Z,52.11
2022-08-07T08:31:06.565Z,52.40
2022-08-07T08:32:17.770Z,52.37
2022-08-07T08:33:10.553Z,52.76
2022-08-07T08:34:06.645Z,53.24
2022-08-07T08:35:06.675Z,53.63
2022-08-07T08:36:06.701Z,54.19
2022-08-07T08:37:09.953Z,54.96
2022-08-07T08:38:06.912Z,55.04
2022-08-07T08:39:06.852Z,54.84
2022-08-07T08:40:06.893Z,53.97
2022-08-07T08:41:06.833Z,54.26
2022-08-07T08:42:06.861Z,54.62
2022-08-07T08:43:06.888Z,54.91
2022-08-07T08:44:06.913Z,55.40
2022-08-07T08:45:06.938Z,55.66
2022-08-07T08:46:06.965Z,55.46
2022-08-07T08:47:09.790Z,55.94
2022-08-07T08:48:07.019Z,56.02
2022-08-07T08:49:07.107Z,56.70
2022-08-07T08:50:07.069Z,57.08
2022-08-07T08:51:14.485Z,56.88
2022-08-07T08:52:14.401Z,56.98
2022-08-07T08:53:07.144Z,56.09
2022-08-07T08:54:07.169Z,56.18
2022-08-07T08:55:07.769Z,56.37
2022-08-07T08:56:07.248Z,56.76
2022-08-07T08:57:07.244Z,57.03
2022-08-07T08:58:13.058Z,57.54
2022-08-07T08:59:13.476Z,56.63
2022-08-07T09:00:07.323Z,56.45
2022-08-07T09:01:15.893Z,56.73
2022-08-07T09:02:09.011Z,56.73
2022-08-07T09:03:07.579Z,56.83
2022-08-07T09:04:07.418Z,56.99
2022-08-07T09:05:07.451Z,56.90
2022-08-07T09:06:07.472Z,56.90
2022-08-07T09:07:07.492Z,57.38
2022-08-07T09:08:07.517Z,57.57
2022-08-07T09:09:13.432Z,58.06
2022-08-07T09:10:07.565Z,58.54
2022-08-07T09:11:08.297Z,59.12
2022-08-07T09:12:30.401Z,59.53
2022-08-07T09:13:07.637Z,59.63
2022-08-07T09:14:07.665Z,59.25
2022-08-07T09:16:20.319Z,58.76
2022-08-07T09:16:23.811Z,59.05
2022-08-07T09:17:07.738Z,58.57
2022-08-07T09:18:11.490Z,58.47
2022-08-07T09:19:51.473Z,58.67
2022-08-07T09:20:09.424Z,57.99
2022-08-07T09:21:13.970Z,57.51
2022-08-07T09:24:27.113Z,57.24
2022-08-07T09:24:31.730Z,57.73
2022-08-07T09:24:54.967Z,57.44
2022-08-07T09:25:14.694Z,57.82
2022-08-07T09:26:07.960Z,57.73
2022-08-07T09:27:11.855Z,57.63
2022-08-07T09:29:22.341Z,58.02
2022-08-07T09:30:06.114Z,57.86
2022-08-07T09:30:08.983Z,57.76
2022-08-07T09:31:08.512Z,57.66
2022-08-07T09:32:18.519Z,56.98
2022-08-07T09:33:24.257Z,56.60
2022-08-07T09:34:08.157Z,56.79
2022-08-07T09:36:04.464Z,56.50
2022-08-07T09:36:08.208Z,56.50
2022-08-07T09:37:08.258Z,56.34
2022-08-07T09:38:10.378Z,56.04
2022-08-07T09:39:17.977Z,56.04
2022-08-07T09:40:08.318Z,55.27
2022-08-07T09:41:08.335Z,54.98
2022-08-07T09:42:09.254Z,54.88
2022-08-07T09:43:08.464Z,54.39
2022-08-07T09:44:10.305Z,54.71
2022-08-07T09:47:20.285Z,54.52
2022-08-07T09:47:27.671Z,54.43
2022-08-07T09:47:52.427Z,54.91
2022-08-07T09:48:12.177Z,54.62
2022-08-07T09:50:01.117Z,54.33
2022-08-07T09:50:19.718Z,54.16
2022-08-07T09:51:25.998Z,53.97
2022-08-07T09:52:10.241Z,53.67
2022-08-07T09:53:08.647Z,53.49
2022-08-07T09:54:11.638Z,53.19
2022-08-07T09:55:28.711Z,52.93
2022-08-07T09:56:08.718Z,53.12
2022-08-07T09:57:13.071Z,53.02
2022-08-07T09:58:08.770Z,52.95
2022-08-07T09:59:14.054Z,52.95
2022-08-07T10:00:08.826Z,52.95
2022-08-07T10:01:14.656Z,53.15
2022-08-07T10:02:08.879Z,53.37
2022-08-07T10:04:06.293Z,53.56
2022-08-07T10:04:14.760Z,51.81
2022-08-07T10:05:12.643Z,50.94
2022-08-07T10:06:11.900Z,51.45
2022-08-07T10:07:24.370Z,51.16
2022-08-07T10:08:09.048Z,51.45
2022-08-07T10:09:09.077Z,51.57
2022-08-07T10:10:11.874Z,51.77
2022-08-07T10:11:59.737Z,51.57
2022-08-07T10:12:16.809Z,50.82
2022-08-07T10:13:15.694Z,50.43
2022-08-07T10:14:11.118Z,49.66
2022-08-07T10:15:15.334Z,49.87
2022-08-07T10:16:09.286Z,49.49
2022-08-07T10:17:14.448Z,49.32
2022-08-07T10:18:09.350Z,49.12
2022-08-07T10:19:11.268Z,49.22
2022-08-07T10:20:12.971Z,48.63
2022-08-07T10:21:19.639Z,49.05
2022-08-07T10:22:15.636Z,49.34
2022-08-07T10:23:09.752Z,47.59
2022-08-07T10:24:10.064Z,47.59
2022-08-07T10:25:09.564Z,47.71
2022-08-07T10:26:09.596Z,47.80
2022-08-07T10:27:10.486Z,48.12
2022-08-07T10:28:09.665Z,47.36
2022-08-07T10:29:09.694Z,47.27
2022-08-07T10:30:11.088Z,47.19
2022-08-07T10:31:11.313Z,47.51
2022-08-07T10:32:36.523Z,47.73
2022-08-07T10:33:09.828Z,46.88
2022-08-07T10:34:15.440Z,46.09
2022-08-07T10:35:14.865Z,45.80
2022-08-07T10:36:11.301Z,45.23
2022-08-07T10:37:12.659Z,44.35
2022-08-07T10:38:35.341Z,43.87
2022-08-07T10:39:10.098Z,43.87
2022-08-07T10:40:10.159Z,44.06
2022-08-07T10:41:10.107Z,43.28
2022-08-07T10:42:20.942Z,42.97
2022-08-07T10:43:10.175Z,43.16
2022-08-07T10:44:10.210Z,43.65
2022-08-07T10:45:10.244Z,43.63
2022-08-07T10:46:10.275Z,44.12
2022-08-07T10:47:11.725Z,44.19
2022-08-07T10:48:10.345Z,43.90
2022-08-07T10:49:10.373Z,44.09
2022-08-07T10:50:10.405Z,44.66
2022-08-07T10:51:16.654Z,45.05
2022-08-07T10:52:13.375Z,45.51
2022-08-07T10:53:10.498Z,45.81
2022-08-07T10:54:10.529Z,45.81
2022-08-07T10:55:26.643Z,45.29
2022-08-07T10:56:20.709Z,45.49
2022-08-07T10:57:10.625Z,45.67
2022-08-07T10:58:10.648Z,45.86
2022-08-07T10:59:10.682Z,45.86
2022-08-07T11:00:39.684Z,46.03
2022-08-07T11:01:11.604Z,46.03
2022-08-07T11:02:27.386Z,46.03
2022-08-07T11:03:11.166Z,46.64
2022-08-07T11:04:23.099Z,46.54
2022-08-07T11:05:10.915Z,45.57
2022-08-07T11:06:10.894Z,45.29
2022-08-07T11:07:15.139Z,45.20
2022-08-07T11:08:11.762Z,45.28
2022-08-07T11:09:11.493Z,45.47
2022-08-07T11:10:11.339Z,45.37
2022-08-07T11:11:11.055Z,45.37
2022-08-07T11:12:11.075Z,45.25
2022-08-07T11:13:42.266Z,45.54
2022-08-07T11:14:43.410Z,45.84
2022-08-07T11:15:17.409Z,46.51
2022-08-07T11:16:11.193Z,47.20
2022-08-07T11:17:11.222Z,47.66
2022-08-07T11:18:12.547Z,48.15
2022-08-07T11:19:11.284Z,48.73
2022-08-07T11:20:11.313Z,49.02
2022-08-07T11:21:11.369Z,49.15
2022-08-07T11:22:19.167Z,48.27
2022-08-07T11:23:11.400Z,47.71
2022-08-07T11:24:11.430Z,47.61
2022-08-07T11:25:11.459Z,47.61
2022-08-07T11:26:13.179Z,48.02
2022-08-07T11:27:13.427Z,47.73
2022-08-07T11:28:15.326Z,47.53
2022-08-07T11:29:13.288Z,47.15
2022-08-07T11:30:18.252Z,47.27
2022-08-07T11:31:11.691Z,47.36
2022-08-07T11:32:11.672Z,46.12
2022-08-07T11:33:14.152Z,44.87
2022-08-07T11:34:11.733Z,44.02
2022-08-07T11:35:11.765Z,43.46
2022-08-07T11:36:11.796Z,43.65
2022-08-07T11:37:11.937Z,43.77
2022-08-07T11:38:17.197Z,43.77
2022-08-07T11:39:14.644Z,42.81
2022-08-07T11:40:12.005Z,43.10
2022-08-07T11:41:22.288Z,43.62
2022-08-07T11:42:16.899Z,44.01
2022-08-07T11:43:15.465Z,44.03
2022-08-07T11:44:18.606Z,43.05
2022-08-07T11:45:12.208Z,42.48
2022-08-07T11:46:12.130Z,42.70
2022-08-07T11:47:12.165Z,42.82
2022-08-07T11:48:18.058Z,42.15
2022-08-07T11:49:51.420Z,41.49
2022-08-07T11:50:31.215Z,40.63
2022-08-07T11:51:40.815Z,39.45
2022-08-07T11:52:12.339Z,39.27
2022-08-07T11:53:12.374Z,39.19
2022-08-07T11:54:12.410Z,38.82
2022-08-07T11:55:18.542Z,38.32
2022-08-07T11:56:26.599Z,38.74
2022-08-07T11:57:12.775Z,38.93
2022-08-07T11:58:16.140Z,38.95
2022-08-07T11:59:22.077Z,38.95
2022-08-07T12:00:19.066Z,38.87
2022-08-07T12:01:12.665Z,38.46
2022-08-07T12:02:20.735Z,37.77
2022-08-07T12:03:44.385Z,37.67
2022-08-07T12:04:12.777Z,38.54
2022-08-07T12:05:15.418Z,38.62
2022-08-07T12:06:36.486Z,39.09
2022-08-07T12:07:23.744Z,38.60
2022-08-07T12:08:26.070Z,38.80
2022-08-07T12:09:16.770Z,39.19
2022-08-07T12:10:12.985Z,39.76
2022-08-07T12:11:21.386Z,39.37
2022-08-07T12:12:13.054Z,39.27
2022-08-07T12:13:17.126Z,39.45
2022-08-07T12:14:13.123Z,39.45
2022-08-07T12:15:17.204Z,40.03
2022-08-07T12:16:13.191Z,40.70
2022-08-07T12:17:19.834Z,41.08
2022-08-07T12:18:13.266Z,41.49
2022-08-07T12:19:14.621Z,41.09
2022-08-07T12:20:29.766Z,40.78
2022-08-07T12:21:15.048Z,40.80
2022-08-07T12:22:37.738Z,40.21
2022-08-07T12:23:14.283Z,40.43
2022-08-07T12:24:36.836Z,39.86
2022-08-07T12:26:00.939Z,39.76
2022-08-07T12:26:23.153Z,39.09
2022-08-07T12:27:15.755Z,39.00
2022-08-07T12:28:13.813Z,39.01
2022-08-07T12:29:13.668Z,38.03
2022-08-07T12:30:13.668Z,37.85
2022-08-07T12:31:14.299Z,37.76
2022-08-07T12:32:13.747Z,37.65
2022-08-07T12:33:23.286Z,37.67
2022-08-07T12:34:13.810Z,37.57
2022-08-07T12:35:13.846Z,37.59
2022-08-07T12:36:13.884Z,37.41
2022-08-07T12:37:22.914Z,36.92
2022-08-07T12:38:29.467Z,36.55
2022-08-07T12:39:44.121Z,36.65
2022-08-07T12:40:36.220Z,36.84
2022-08-07T12:41:14.091Z,36.46
2022-08-07T12:42:14.103Z,36.46
2022-08-07T12:44:04.583Z,36.29
2022-08-07T12:44:17.265Z,36.58
2022-08-07T12:45:14.213Z,36.21
2022-08-07T12:46:15.885Z,35.81
2022-08-07T12:47:14.305Z,35.33
2022-08-07T12:48:28.242Z,35.53
2022-08-07T12:49:25.416Z,35.14
2022-08-07T12:50:34.371Z,35.14
2022-08-07T12:51:17.733Z,34.86
2022-08-07T12:52:17.938Z,34.86
2022-08-07T12:53:18.191Z,34.76